• Join FlightAware (Why Join?)
  • Login
  • US Flag 
02:58AM EDT


 

Airport Tracker/Info


-or-


 

Live Flight TrackerFlight Track Log ✈ JBU514 ✈ 03-Sep-2013 ✈ KLGB - KJFK

Flight Track Log - Related Links

Times and Time Zones

All times are in EDT time to prevent confusion due to time zone crossing. See the JBU514 flight status page for this flight to view local times or setup timezone preferences in your user account.

Time Position Orientation Groundspeed Altitude Reporting Facility
EDT Latitude Longitude Course Direction KTS MPH feet Rate Location/Type
01:34PM 33.8069 -118.2369 49° Northeast 224 258 2,500  Level Los Angeles Center
01:35PM 33.7450 -118.2828 212° Southwest 243 280 5,300 2,460 Climbing Los Angeles Center
01:36PM 33.6926 -118.0130 18° North  Level FlightAware Approximate
01:36PM 33.6728 -118.3044 194° South 265 305 7,600  Level Los Angeles Center
01:37PM 33.8134 -117.9600 23° Northeast  Level FlightAware Approximate
01:38PM 33.9297 -117.9037 40° Northeast  Level FlightAware Approximate
01:38PM 33.6281 -118.2414 130° Southeast 267 307 9,900  Level Los Angeles Center
01:39PM 34.0324 -117.8167 North  Level FlightAware Approximate
01:39PM 33.6633 -118.1428 67° East 313 360 11,900  Level Los Angeles Center
01:40PM 34.1273 -117.7125 49° Northeast  Level FlightAware Approximate
01:40PM 33.7364 -118.0825 34° Northeast 322 371 13,800  Level Los Angeles Center
01:41PM 33.8139 -118.0183 35° Northeast 337 388 14,900 1,140 Climbing Los Angeles Center
01:42PM 33.9011 -117.9464 34° Northeast 376 433 16,200 960 Climbing Los Angeles Center
01:43PM 33.9922 -117.8667 36° Northeast 402 463 16,900 1,140 Climbing Los Angeles Center
01:44PM 34.1042 -117.7583 39° Northeast 429 494 18,600 1,080 Climbing Los Angeles Center
01:45PM 34.1675 -117.6725 48° Northeast 431 496 19,200 960 Climbing Los Angeles Center
01:46PM 34.2639 -117.5406 49° Northeast 436 502 20,700 1,200 Climbing Los Angeles Center
01:47PM 34.3461 -117.4275 49° Northeast 446 513 21,700 960 Climbing Los Angeles Center
01:48PM 34.4436 -117.3186 43° Northeast 456 525 22,800 960 Climbing Los Angeles Center
01:49PM 34.5247 -117.2006 50° Northeast 459 528 23,800 960 Climbing Los Angeles Center
01:50PM 34.6078 -117.0822 50° Northeast 463 533 24,800 900 Climbing Los Angeles Center
01:51PM 34.7092 -116.9378 49° Northeast 471 542 25,700 720 Climbing Los Angeles Center
01:52PM 34.7953 -116.8144 50° Northeast 479 551 26,300 600 Climbing Los Angeles Center
01:53PM 34.8828 -116.6889 50° Northeast 488 562 27,000 600 Climbing Los Angeles Center
01:54PM 34.9711 -116.5636 49° Northeast 489 563 27,600 600 Climbing Los Angeles Center
01:55PM 35.0683 -116.4411 46° Northeast 499 574 28,300 720 Climbing Los Angeles Center
01:56PM 35.1842 -116.2964 46° Northeast 500 575 29,100 780 Climbing Los Angeles Center
01:57PM 35.2814 -116.1753 45° Northeast 500 575 30,000 720 Climbing Los Angeles Center
01:58PM 35.3761 -116.0539 46° Northeast 496 571 30,700 480 Climbing Los Angeles Center
01:59PM 35.4728 -115.9328 46° Northeast 497 572 31,000 120 Climbing Los Angeles Center
02:00PM 35.5694 -115.8122 45° Northeast 497 572 31,000  Level Los Angeles Center
02:01PM 35.6842 -115.6631 47° Northeast 500 575 31,000  Level Los Angeles Center
02:02PM 35.7758 -115.5381 48° Northeast 497 572 31,000  Level Los Angeles Center
02:03PM 35.8750 -115.4156 45° Northeast 501 577 31,000  Level Los Angeles Center
02:05PM 35.9728 -115.2942 45° Northeast 501 577 31,100 420 Climbing Los Angeles Center
02:06PM 36.0897 -115.1447 46° Northeast 491 565 32,000 720 Climbing Los Angeles Center
02:07PM 36.1853 -115.0222 46° Northeast 496 571 32,700 480 Climbing Los Angeles Center
02:08PM 36.2903 -114.8917 45° Northeast 497 572 33,000 120 Climbing Los Angeles Center
02:09PM 36.3850 -114.7700 46° Northeast 492 566 33,000  Level Los Angeles Center
02:11PM 36.5458 -114.4981 54° Northeast 489 563 33,000  Level Salt Lake Center
02:12PM 36.6219 -114.3581 56° Northeast 489 563 33,000  Level Salt Lake Center
02:13PM 36.6953 -114.2189 57° Northeast 485 558 33,000  Level Salt Lake Center
02:14PM 36.7850 -114.0519 56° Northeast 484 557 33,000  Level Salt Lake Center
02:15PM 36.8594 -113.9108 57° Northeast 487 560 33,000  Level Salt Lake Center
02:16PM 36.9344 -113.7692 56° Northeast 488 562 33,000  Level Salt Lake Center
02:17PM 37.0086 -113.6275 57° Northeast 489 563 33,000  Level Salt Lake Center
02:18PM 37.0806 -113.4833 58° Northeast 490 564 33,000  Level Salt Lake Center
02:19PM 37.1550 -113.3417 57° Northeast 490 564 33,000  Level Salt Lake Center
02:20PM 37.2422 -113.1742 57° Northeast 485 558 33,000  Level Salt Lake Center
02:21PM 37.3156 -113.0333 57° Northeast 484 557 33,000  Level Salt Lake Center
02:22PM 37.3883 -112.8908 57° Northeast 487 560 33,000  Level Salt Lake Center
02:23PM 37.4600 -112.7492 57° Northeast 489 563 33,100  Climbing Salt Lake Center
02:24PM 37.5475 -112.5808 57° Northeast 490 564 33,000 -60 Descending Salt Lake Center
02:25PM 37.6203 -112.4400 57° Northeast 488 562 33,000  Level Salt Lake Center
02:26PM 37.6931 -112.2986 57° Northeast 486 559 33,000  Level Salt Lake Center
02:27PM 37.7708 -112.1600 55° Northeast 485 558 33,000  Level Salt Lake Center
02:28PM 37.8525 -112.0244 53° Northeast 486 559 33,000  Level Salt Lake Center
02:29PM 37.9483 -111.8569 54° Northeast 490 564 33,000  Level Salt Lake Center
02:30PM 38.0292 -111.7167 54° Northeast 493 567 33,100  Climbing Salt Lake Center
02:31PM 38.1086 -111.5761 54° Northeast 492 566 33,000 -60 Descending Salt Lake Center
02:32PM 38.1889 -111.4356 54° Northeast 492 566 33,000  Level Salt Lake Center
02:33PM 38.2678 -111.2956 54° Northeast 489 563 33,000  Level Salt Lake Center
02:34PM 38.3478 -111.1553 54° Northeast 490 564 33,000  Level Salt Lake Center
02:36PM 38.4419 -110.9831 55° Northeast 494 568 33,000  Level Salt Lake Center
02:37PM 38.5158 -110.8525 54° Northeast 493 567 33,000  Level Salt Lake Center
02:38PM 38.6025 -110.6942 55° Northeast 488 562 33,000  Level Salt Lake Center
02:39PM 38.6778 -110.5600 54° Northeast 485 558 33,000  Level Salt Lake Center
02:40PM 38.7633 -110.4028 55° Northeast 482 555 33,000  Level Salt Lake Center
02:41PM 38.8369 -110.2683 55° Northeast 482 555 33,000  Level Salt Lake Center
02:42PM 38.9231 -110.1092 55° Northeast 485 558 33,000  Level Salt Lake Center
02:43PM 38.9958 -109.9742 55° Northeast 482 555 33,000  Level Salt Lake Center
02:44PM 39.0808 -109.8158 55° Northeast 482 555 33,000  Level Salt Lake Center
02:45PM 39.1550 -109.6797 55° Northeast 484 557 33,000  Level Salt Lake Center
02:46PM 39.2272 -109.5408 56° Northeast 487 560 33,000  Level Salt Lake Center
02:47PM 39.3244 -109.3558 56° Northeast 485 558 33,000  Level Denver Center
02:48PM 39.3864 -109.2431 55° Northeast 485 558 33,000  Level Salt Lake Center
02:49PM 39.4703 -109.0817 56° Northeast 485 558 33,000  Level Salt Lake Center
02:50PM 39.5419 -108.9456 56° Northeast 480 552 33,000  Level Salt Lake Center
02:51PM 39.6161 -108.8031 56° Northeast 477 549 33,000  Level Salt Lake Center
02:52PM 39.7058 -108.6317 56° Northeast 491 565 33,000  Level Salt Lake Center
02:53PM 39.7778 -108.4933 56° Northeast 487 560 33,000  Level Salt Lake Center
02:54PM 39.8606 -108.3308 56° Northeast 483 556 33,000  Level Salt Lake Center
02:55PM 39.9314 -108.1919 56° Northeast 483 556 33,000  Level Salt Lake Center
02:56PM 40.0025 -108.0531 56° Northeast 483 556 33,000  Level Salt Lake Center
02:57PM 40.0825 -107.8900 57° Northeast 480 552 33,000  Level Salt Lake Center
02:58PM 40.1564 -107.6900 64° Northeast 478 550 33,000  Level Denver Center
02:59PM 40.2133 -107.5406 63° Northeast 478 550 33,000  Level Denver Center
03:00PM 40.2703 -107.3919 63° Northeast 478 550 33,000  Level Denver Center
03:01PM 40.3347 -107.2172 64° Northeast 478 550 33,000  Level Denver Center
03:03PM 40.3906 -107.0675 64° Northeast 479 551 33,000  Level Denver Center
03:04PM 40.4567 -106.8914 64° Northeast 481 554 33,000  Level Denver Center
03:05PM 40.5081 -106.7528 64° Northeast 480 552 33,000  Level Denver Center
03:06PM 40.5775 -106.5642 64° Northeast 477 549 33,000  Level Denver Center
03:07PM 40.6297 -106.4167 65° Northeast 471 542 33,000  Level Denver Center
03:08PM 40.6936 -106.2425 64° Northeast 472 543 33,000  Level Denver Center
03:09PM 40.7472 -106.0919 65° Northeast 473 544 33,000  Level Denver Center
03:10PM 40.8003 -105.9344 66° East 470 541 33,100  Climbing Denver Center
03:11PM 40.8342 -105.7661 75° East 473 544 33,000 -60 Descending Denver Center
03:12PM 40.8706 -105.5964 74° East 478 550 33,000  Level Denver Center
03:13PM 40.9131 -105.3917 75° East 480 552 33,000  Level Denver Center
03:14PM 40.9475 -105.2225 75° East 479 551 33,000  Level Denver Center
03:15PM 40.9817 -105.0536 75° East 478 550 33,000  Level Denver Center
03:16PM 41.0164 -104.8794 75° East 477 549 33,000  Level Denver Center
03:17PM 41.0550 -104.6911 75° East 477 549 33,000  Level Denver Center
03:18PM 41.0867 -104.5275 76° East 479 551 33,000  Level Denver Center
03:19PM 41.1244 -104.3350 75° East 482 555 33,000  Level Denver Center
03:20PM 41.1558 -104.1725 76° East 479 551 33,000  Level Denver Center
03:21PM 41.1878 -104.0086 75° East 480 552 33,000  Level Denver Center
03:22PM 41.2244 -103.8175 76° East 480 552 33,000  Level Denver Center
03:23PM 41.2561 -103.6528 76° East 482 555 33,000  Level Denver Center
03:24PM 41.2922 -103.4603 76° East 482 555 33,000  Level Denver Center
03:25PM 41.3228 -103.2947 76° East 483 556 33,000  Level Denver Center
03:26PM 41.3586 -103.1031 76° East 481 554 33,000  Level Denver Center
03:27PM 41.3889 -102.9378 76° East 482 555 33,000  Level Denver Center
03:28PM 41.4236 -102.7464 76° East 477 549 33,000  Level Denver Center
03:29PM 41.4544 -102.5719 77° East 477 549 33,000  Level Denver Center
03:30PM 41.4847 -102.4067 76° East 479 551 33,000  Level Denver Center
03:31PM 41.5192 -102.2136 77° East 479 551 33,000  Level Denver Center
03:33PM 41.5489 -102.0486 76° East 478 550 33,000  Level Denver Center
03:34PM 41.5817 -101.8567 77° East 476 548 33,000  Level Denver Center
03:35PM 41.6092 -101.6925 77° East 473 544 33,000  Level Denver Center
03:36PM 41.6417 -101.4994 77° East 476 548 33,000  Level Denver Center
03:37PM 41.6697 -101.3325 77° East 479 551 33,000  Level Denver Center
03:38PM 41.7031 -101.1367 77° East 481 554 33,000  Level Denver Center
03:39PM 41.7300 -100.9700 78° East 479 551 33,000  Level Denver Center
03:40PM 41.7567 -100.8019 78° East 481 554 33,000  Level Denver Center
03:41PM 41.7875 -100.6089 78° East 475 547 33,000  Level Denver Center
03:42PM 41.8142 -100.4394 78° East 481 554 33,000  Level Denver Center
03:43PM 41.8453 -100.2450 78° East 479 551 33,000  Level Denver Center
03:44PM 41.8711 -100.0775 78° East 478 550 33,000  Level Denver Center
03:45PM 41.9014 -99.8819 78° East 478 550 33,000  Level Denver Center
03:46PM 41.9281 -99.7083 78° East 478 550 33,000  Level Denver Center
03:47PM 41.9539 -99.5314 79° East 481 554 33,000  Level Denver Center
03:48PM 41.9861 -99.3203 78° East 480 552 33,000  Level Minneapolis Center
03:49PM 42.0131 -99.1433 78° East 482 555 33,000  Level Minneapolis Center
03:50PM 42.0389 -98.9653 79° East 483 556 33,000  Level Minneapolis Center
03:51PM 42.0644 -98.7858 79° East 486 559 33,000  Level Minneapolis Center
03:52PM 42.0897 -98.6075 79° East 485 558 33,000  Level Minneapolis Center
03:53PM 42.1142 -98.4278 80° East 487 560 33,000  Level Minneapolis Center
03:54PM 42.1394 -98.2497 79° East 484 557 33,000  Level Minneapolis Center
03:55PM 42.1681 -98.0350 80° East 484 557 33,000  Level Minneapolis Center
03:56PM 42.1886 -97.8931 79° East 482 555 33,000  Level Minneapolis Center
03:57PM 42.2175 -97.6756 80° East 486 559 33,000  Level Minneapolis Center
03:58PM 42.2406 -97.4964 80° East 486 559 33,000  Level Minneapolis Center
04:00PM 42.2636 -97.3178 80° East 485 558 33,000  Level Minneapolis Center
04:01PM 42.2861 -97.1367 80° East 485 558 33,000  Level Minneapolis Center
04:02PM 42.3147 -96.9178 80° East 489 563 33,000  Level Minneapolis Center
04:03PM 42.3322 -96.7731 81° East 489 563 33,000  Level Minneapolis Center
04:04PM 42.3600 -96.5539 80° East 491 565 33,000  Level Minneapolis Center
04:05PM 42.3814 -96.3722 81° East 489 563 33,000  Level Minneapolis Center
04:06PM 42.4033 -96.1903 81° East 489 563 33,000  Level Minneapolis Center
04:07PM 42.4239 -96.0083 81° East 489 563 33,000  Level Minneapolis Center
04:08PM 42.4458 -95.8261 81° East 490 564 33,000 300 Level Minneapolis Center
04:09PM 42.4711 -95.6061 81° East 492 566 33,700 720 Climbing Minneapolis Center
04:10PM 42.4922 -95.4200 81° East 497 572 34,600 600 Climbing Minneapolis Center
04:11PM 42.5125 -95.2392 81° East 489 563 35,000 180 Climbing Minneapolis Center
04:12PM 42.5317 -95.0567 82° East 488 562 35,000  Level Minneapolis Center
04:13PM 42.5519 -94.8697 82° East 496 571 35,000  Level Minneapolis Center
04:14PM 42.5708 -94.6864 82° East 493 567 35,000  Level Minneapolis Center
04:15PM 42.5911 -94.4742 83° East 492 566 35,000  Level Minneapolis Center
04:17PM 42.6108 -94.1042 86° East 501 577 35,000  Level Chicago Center
04:18PM 42.6128 -93.9578 89° East 497 572 35,000  Level Minneapolis Center
04:19PM 42.6153 -93.7353 89° East 496 571 35,000  Level Minneapolis Center
04:20PM 42.6153 -93.5117 90° East 499 574 35,000  Level Minneapolis Center
04:21PM 42.6164 -93.3244 89° East 501 577 35,000  Level Minneapolis Center
04:22PM 42.6167 -93.1383 90° East 500 575 35,000  Level Minneapolis Center
04:23PM 42.6153 -92.9511 91° East 499 574 35,000  Level Chicago Center
04:24PM 42.6144 -92.7275 90° East 500 575 35,000  Level Chicago Center
04:25PM 42.6139 -92.5419 90° East 497 572 35,000  Level Chicago Center
04:26PM 42.6131 -92.3558 90° East 500 575 35,000  Level Chicago Center
04:27PM 42.6117 -92.1697 91° East 500 575 35,000  Level Chicago Center
04:29PM 42.6094 -91.9467 91° East 500 575 35,000  Level Chicago Center
04:30PM 42.6064 -91.7633 91° East 498 573 35,000  Level Chicago Center
04:31PM 42.6044 -91.5792 91° East 503 579 35,000  Level Chicago Center
04:32PM 42.6028 -91.3958 91° East 500 575 35,000  Level Chicago Center
04:33PM 42.5994 -91.1739 91° East 498 573 35,000  Level Chicago Center
04:34PM 42.5964 -90.9867 91° East 502 578 35,000  Level Chicago Center
04:35PM 42.5922 -90.8000 92° East 501 577 35,000  Level Chicago Center
04:36PM 42.5892 -90.6150 91° East 496 571 35,000  Level Chicago Center
04:37PM 42.5844 -90.3922 92° East 497 572 35,000  Level Chicago Center
04:38PM 42.5797 -90.2092 92° East 493 567 35,000 -60 Level Chicago Center
04:39PM 42.5742 -90.0267 92° East 491 565 34,900  Descending Chicago Center
04:40PM 42.5692 -89.8411 92° East 495 570 35,000 60 Climbing Chicago Center
04:41PM 42.5642 -89.6564 92° East 494 568 35,100  Climbing Chicago Center
04:42PM 42.5564 -89.4344 93° East 495 570 35,000 -60 Descending Chicago Center
04:43PM 42.5508 -89.2503 92° East 495 570 35,000  Level Chicago Center
04:44PM 42.5442 -89.0667 93° East 491 565 35,000  Level Chicago Center
04:45PM 42.5372 -88.8833 93° East 491 565 35,000  Level Chicago Center
04:46PM 42.5308 -88.6969 93° East 493 567 35,000  Level Chicago Center
04:47PM 42.5217 -88.4703 93° East 501 577 35,000  Level Chicago Center
04:48PM 42.5139 -88.2825 93° East 501 577 35,000  Level Chicago Center
04:49PM 42.5053 -88.0911 93° East 507 583 35,000  Level Chicago Center
04:50PM 42.4989 -87.9011 93° East 507 583 35,000  Level Chicago Center
04:51PM 42.4992 -87.7069 90° East 513 590 35,000  Level Chicago Center
04:52PM 42.4986 -87.4744 90° East 515 593 35,000  Level Chicago Center
04:53PM 42.4978 -87.2844 90° East 508 585 35,000  Level Chicago Center
04:54PM 42.4961 -87.0950 91° East 504 580 35,000  Level Chicago Center
04:55PM 42.4944 -86.9058 91° East 505 581 35,000  Level Chicago Center
04:56PM 42.4925 -86.7167 91° East 505 581 35,000  Level Chicago Center
04:57PM 42.4911 -86.5181 90° East 507 583 35,000  Level Chicago Center
04:59PM 42.4872 -86.3275 92° East 511 588 35,000  Level Chicago Center
05:00PM 42.4842 -86.1000 91° East 510 587 35,000  Level Chicago Center
05:01PM 42.4806 -85.9097 91° East 510 587 35,000  Level Chicago Center
05:02PM 42.4775 -85.7200 91° East 508 585 35,000  Level Chicago Center
05:03PM 42.4744 -85.5292 91° East 511 588 35,000  Level Chicago Center
05:04PM 42.4706 -85.3350 91° East 518 596 35,000  Level Chicago Center
05:05PM 42.4650 -85.1058 92° East 513 590 35,000  Level Chicago Center
05:06PM 42.4603 -84.9169 92° East 508 585 35,000  Level Chicago Center
05:07PM 42.4558 -84.7256 92° East 509 586 35,000  Level Chicago Center
05:08PM 42.4500 -84.5339 92° East 511 588 35,000  Level Chicago Center
05:09PM 42.4419 -84.3567 93° East 511 588 35,000  Level Cleveland Center
05:10PM 42.4356 -84.1675 93° East 511 588 35,000  Level Cleveland Center
05:11PM 42.4289 -83.9758 93° East 511 588 35,000  Level Cleveland Center
05:12PM 42.4239 -83.7842 92° East 506 582 35,000  Level Cleveland Center
05:13PM 42.4186 -83.5928 92° East 506 582 35,000  Level Cleveland Center
05:14PM 42.4053 -83.3811 95° East 512 589 35,000  Level Cleveland Center
05:15PM 42.3994 -83.1814 92° East 517 595 35,000  Level Cleveland Center
05:16PM 42.3914 -82.9842 93° East 522 601 35,000  Level Cleveland Center
05:17PM 42.3806 -82.7925 94° East 517 595 35,000  Level Cleveland Center
05:18PM 42.3736 -82.6011 93° East 517 595 35,000  Level Cleveland Center
05:19PM 42.3644 -82.4042 94° East 517 595 35,000  Level Cleveland Center
05:20PM 42.3569 -82.2072 93° East 517 595 35,000  Level Cleveland Center
05:21PM 42.3514 -82.0133 92° East 517 595 35,000  Level Cleveland Center
05:22PM 42.3428 -81.8389 94° East 522 601 35,000  Level Cleveland Center
05:23PM 42.3344 -81.6447 93° East 516 594 35,000  Level Cleveland Center
05:24PM 42.3256 -81.4481 93° East 516 594 35,000  Level Cleveland Center
05:25PM 42.3144 -81.2514 94° East 522 601 35,000  Level Cleveland Center
05:26PM 42.2861 -81.0547 101° East 522 601 35,000  Level Cleveland Center
05:27PM 42.2578 -80.8442 100° East 527 606 35,000  Level Cleveland Center
05:28PM 42.2308 -80.6506 101° East 522 601 35,000  Level Cleveland Center
05:29PM 42.2039 -80.4569 101° East 527 606 35,000 -60 Level Cleveland Center
05:30PM 42.1764 -80.2636 101° East 527 606 34,900  Descending Cleveland Center
05:31PM 42.1486 -80.0764 101° East 522 601 35,000  Climbing Cleveland Center
05:32PM 42.1225 -79.8972 101° East 502 578 35,000  Level Cleveland Center
05:33PM 42.0922 -79.7075 102° East 510 587 35,000  Level Cleveland Center
05:34PM 42.0700 -79.5511 101° East 499 574 35,000  Level Cleveland Center
05:35PM 42.0411 -79.3669 102° East 499 574 35,000  Level Cleveland Center
05:36PM 42.0142 -79.1858 101° East 499 574 35,100  Climbing Cleveland Center
05:37PM 41.9847 -79.0050 102° East 499 574 35,000 -60 Descending Cleveland Center
05:38PM 41.9569 -78.8242 102° East 499 574 35,000  Level Cleveland Center
05:39PM 41.9269 -78.6433 103° East 499 574 35,000  Level Cleveland Center
05:40PM 41.8986 -78.4603 102° East 499 574 35,000  Level Cleveland Center
05:41PM 41.8681 -78.2828 103° East 499 574 35,000  Level Cleveland Center
05:42PM 41.8394 -78.1025 102° East 499 574 35,000  Level Cleveland Center
05:44PM 41.7825 -77.7586 102° East 494 568 35,000  Level New York Center
05:45PM 41.7508 -77.5828 104° East 494 568 35,000  Level New York Center
05:46PM 41.7217 -77.4019 102° East 494 568 35,000  Level New York Center
05:47PM 41.6922 -77.2183 102° East 499 574 35,000  Level New York Center
05:48PM 41.6472 -77.0475 109° East 499 574 35,000  Level New York Center
05:49PM 41.6042 -76.8714 108° East 499 574 35,000  Level New York Center
05:50PM 41.5531 -76.6894 111° Southeast 493 567 35,000  Level New York Center
05:51PM 41.5072 -76.5219 110° East 483 556 35,000 -480 Level New York Center
05:52PM 41.4631 -76.3547 109° East 478 550 34,100 -900 Descending New York Center
05:53PM 41.4181 -76.2044 112° Southeast 484 557 33,200 -1,020 Descending New York Center
05:54PM 41.3694 -76.0317 111° Southeast 493 567 32,100 -1,620 Descending New York Center
05:55PM 41.3203 -75.8678 112° Southeast 487 560 30,000 -2,100 Descending New York Center
05:56PM 41.2772 -75.7042 109° East 477 549 28,000 -2,040 Descending New York Center
05:57PM 41.2233 -75.5458 114° Southeast 471 542 26,000 -1,800 Descending New York Center
05:58PM 41.1697 -75.3767 113° Southeast 458 527 24,400 -1,500 Descending New York Center
05:59PM 41.1225 -75.2469 116° Southeast 450 518 23,000 -720 Descending New York Center
06:00PM 41.0739 -75.0978 113° Southeast 444 511 23,000  Level New York Center
06:01PM 41.0172 -74.9372 115° Southeast 439 505 23,000  Level New York Center
06:02PM 40.9886 -74.8064 106° East 426 490 23,000 -60 Level New York Center
06:03PM 40.9711 -74.6378 98° East 431 496 22,900 -540 Descending New York Center
06:04PM 40.9514 -74.4744 99° East 436 502 22,000 -1,440 Descending New York Center
06:05PM 40.9353 -74.3253 98° East 436 502 20,100 -1,440 Descending New York Center
06:06PM 40.9231 -74.1764 96° East 422 486 19,200 -660 Descending New York Center
06:07PM 40.8767 -74.0478 115° Southeast 385 443 18,800 -1,200 Descending New York Center
06:08PM 40.7833 -74.0000 159° South 333 383 16,800 -1,620 Descending New York TRACON
06:09PM 40.6833 -73.9667 166° South 325 374 15,300 -1,860 Descending New York TRACON
06:10PM 40.6000 -73.9333 163° South 327 376 13,000 -2,160 Descending New York TRACON
06:11PM 40.5167 -73.9000 163° South 301 346 11,000 -2,160 Descending New York TRACON
06:12PM 40.4500 -73.8667 159° South 290 334 8,700 -2,220 Descending New York TRACON
06:13PM 40.3667 -73.8333 163° South 286 329 6,600 -1,860 Descending New York TRACON
06:14PM 40.3333 -73.7333 114° Southeast 298 343 5,000 -1,320 Descending New York TRACON
06:15PM 40.3667 -73.6333 66° East 285 328 4,000 -540 Descending New York TRACON
06:16PM 40.4167 -73.5667 45° Northeast 264 304 4,000  Level New York TRACON
06:17PM 40.4833 -73.5167 30° Northeast 255 293 4,000  Level New York TRACON
06:18PM 40.5500 -73.5000 11° North 243 280 4,000 -240 Level New York TRACON
06:19PM 40.6000 -73.5167 346° North 239 275 3,600 -540 Descending New York TRACON
06:20PM 40.6500 -73.5500 333° Northwest 206 237 3,000 -420 Descending New York TRACON
06:21PM 40.7000 -73.5833 333° Northwest 183 211 2,800 -480 Descending New York TRACON
06:22PM 40.7500 -73.6167 333° Northwest 167 192 2,000 -420 Descending New York TRACON
06:23PM 40.7500 -73.6667 270° West 176 203 2,000 -300 Level New York TRACON
06:24PM 40.7000 -73.7000 207° Southwest 172 198 1,500 -660 Descending New York TRACON
06:25PM 40.6667 -73.7333 217° Southwest 143 165 700 -840 Descending New York TRACON